Time;durP1;ratioP1;P1;durP2;ratioP2;P2;SDS_P1;SDS_P2;PMS_P1;PMS_P2;Temp;Humidity;BMP_temperature;BMP_pressure;BME280_temperature;BME280_humidity;BME280_pressure;Samples;Min_cycle;Max_cycle;Signal;HPM_P1;HPM_P2
2022/01/22 00:02:04;;;;;;;9.90;1.67;;;6.90;99.90;;;;;;5048361;28;20053;-81
2022/01/22 00:04:29;;;;;;;12.85;1.67;;;6.90;99.90;;;;;;5048841;28;20429;-80
2022/01/22 00:06:55;;;;;;;22.30;2.17;;;6.90;99.90;;;;;;5048613;28;20041;-80
2022/01/22 00:09:25;;;;;;;28.25;1.70;;;6.90;99.90;;;;;;5048426;28;20053;-80
2022/01/22 00:11:53;;;;;;;13.35;1.27;;;7.10;99.90;;;;;;5047139;28;20562;-80
2022/01/22 00:14:25;;;;;;;22.48;1.65;;;6.90;99.90;;;;;;5048553;28;20057;-80
2022/01/22 00:16:58;;;;;;;14.43;1.17;;;7.10;99.90;;;;;;5048466;28;20044;-80
2022/01/22 00:19:24;;;;;;;7.20;1.27;;;6.90;99.90;;;;;;5048632;28;20048;-80
2022/01/22 00:21:51;;;;;;;14.68;1.90;;;6.90;99.90;;;;;;5047081;28;20037;-80
2022/01/22 00:24:17;;;;;;;3.58;1.00;;;6.90;99.90;;;;;;5048291;28;20045;-80
2022/01/22 00:26:43;;;;;;;10.50;1.42;;;6.90;99.90;;;;;;5047478;28;20039;-79
2022/01/22 00:29:10;;;;;;;9.35;1.27;;;6.90;99.90;;;;;;5046762;28;20067;-79
2022/01/22 00:31:38;;;;;;;9.70;0.98;;;6.80;99.90;;;;;;5048004;28;20490;-82
2022/01/22 00:34:03;;;;;;;13.70;1.45;;;6.90;99.90;;;;;;5047017;28;20045;-81
2022/01/22 00:36:29;;;;;;;10.07;0.88;;;6.90;99.90;;;;;;5029804;28;20057;-81
2022/01/22 00:38:55;;;;;;;14.55;1.08;;;6.90;99.90;;;;;;5046627;28;20521;-81
2022/01/22 00:41:21;;;;;;;4.68;0.77;;;7.30;99.90;;;;;;5013719;28;20084;-80
2022/01/22 00:43:48;;;;;;;16.58;1.23;;;6.80;99.90;;;;;;5047192;28;20075;-81
2022/01/22 00:46:14;;;;;;;12.73;1.10;;;6.80;99.90;;;;;;5045934;28;20096;-81
2022/01/22 00:48:40;;;;;;;12.90;1.35;;;7.00;99.90;;;;;;5046449;28;20056;-81
2022/01/22 00:51:06;;;;;;;13.93;1.55;;;6.80;99.90;;;;;;5029815;28;20044;-81
2022/01/22 00:53:32;;;;;;;18.90;1.02;;;6.80;99.90;;;;;;5047062;28;20081;-81
2022/01/22 00:55:58;;;;;;;12.82;1.38;;;7.50;99.90;;;;;;5029614;28;20115;-81
2022/01/22 00:58:24;;;;;;;11.73;1.13;;;6.80;99.90;;;;;;5046494;28;20417;-81
2022/01/22 01:00:50;;;;;;;12.10;0.98;;;6.90;99.90;;;;;;5030037;28;20479;-81
2022/01/22 01:03:16;;;;;;;7.03;0.80;;;8.10;99.90;;;;;;5045729;28;20565;-81
2022/01/22 01:05:42;;;;;;;7.88;1.13;;;6.90;99.90;;;;;;5047711;28;20168;-81
2022/01/22 01:08:08;;;;;;;6.97;0.90;;;7.00;99.90;;;;;;5046140;28;20114;-81
2022/01/22 01:10:33;;;;;;;4.53;0.80;;;6.90;99.90;;;;;;5046390;28;20056;-80
2022/01/22 01:12:59;;;;;;;8.13;0.95;;;6.90;99.90;;;;;;5029888;28;20044;-81
2022/01/22 01:15:53;;;;;;;9.57;0.90;;;7.60;99.90;;;;;;5046311;28;20536;-81
2022/01/22 01:34:42;;;;;;;4.35;0.50;;;6.90;99.90;;;;;;5045716;28;20195;-81
2022/01/22 01:37:08;;;;;;;9.70;0.98;;;6.00;99.90;;;;;;5044922;28;20482;-81
2022/01/22 01:39:37;;;;;;;12.48;0.85;;;6.90;99.90;;;;;;5047035;28;20049;-80
2022/01/22 01:42:10;;;;;;;8.50;0.60;;;6.90;99.90;;;;;;5045229;28;20553;-81
2022/01/22 01:44:36;;;;;;;4.85;0.70;;;6.90;99.90;;;;;;5047159;28;20044;-80
2022/01/22 01:47:05;;;;;;;7.18;0.88;;;6.90;99.90;;;;;;5028827;28;20040;-80
2022/01/22 01:49:32;;;;;;;5.88;1.17;;;6.90;99.90;;;;;;5046693;28;20053;-81
2022/01/22 01:52:01;;;;;;;14.05;0.93;;;6.90;99.90;;;;;;5028761;28;20489;-81
2022/01/22 01:59:49;;;;;;;9.45;1.40;;;6.90;99.90;;;;;;5031429;28;20131;-81
2022/01/22 02:02:15;;;;;;;14.40;1.25;;;6.80;99.90;;;;;;5047010;28;20053;-80
2022/01/22 02:04:42;;;;;;;4.78;0.80;;;6.80;99.90;;;;;;5012748;28;20083;-80
2022/01/22 02:07:08;;;;;;;10.45;0.80;;;6.80;99.90;;;;;;5046261;28;20107;-80
2022/01/22 02:09:35;;;;;;;12.68;1.33;;;6.90;99.90;;;;;;5047021;28;20041;-80
2022/01/22 02:12:09;;;;;;;13.48;1.05;;;6.70;99.90;;;;;;5046721;28;20045;-80
2022/01/22 02:25:37;;;;;;;11.20;1.15;;;6.60;99.90;;;;;;5030719;28;20490;-81
2022/01/22 02:28:04;;;;;;;8.00;0.98;;;6.50;99.90;;;;;;5028418;28;20041;-80
2022/01/22 02:30:33;;;;;;;5.63;0.75;;;8.10;99.90;;;;;;5012486;28;20045;-80
2022/01/22 02:33:15;;;;;;;8.75;1.48;;;6.70;99.90;;;;;;5044402;28;20105;-80
2022/01/22 02:36:19;;;;;;;9.90;0.70;;;6.60;99.90;;;;;;5045160;28;20490;-80
2022/01/22 02:38:44;;;;;;;8.48;0.80;;;6.60;99.90;;;;;;5044786;28;20056;-80
2022/01/22 02:41:16;;;;;;;9.80;1.15;;;6.80;99.90;;;;;;5044241;28;20045;-81
2022/01/22 02:43:41;;;;;;;8.25;1.08;;;7.50;99.90;;;;;;5045140;28;20056;-80
2022/01/22 02:46:07;;;;;;;9.27;1.38;;;6.90;99.90;;;;;;5045644;28;20053;-80
2022/01/22 02:48:33;;;;;;;10.30;0.95;;;6.60;99.90;;;;;;5046186;28;20049;-80
2022/01/22 02:50:59;;;;;;;10.35;0.80;;;6.60;99.90;;;;;;5045683;28;20387;-81
2022/01/22 02:53:25;;;;;;;10.43;0.90;;;6.80;99.90;;;;;;5045916;28;20052;-80
2022/01/22 02:55:51;;;;;;;1.73;0.38;;;6.50;99.90;;;;;;5044880;28;20132;-80
2022/01/22 02:58:17;;;;;;;5.88;0.85;;;6.60;99.90;;;;;;5044452;28;20135;-80
2022/01/22 03:00:42;;;;;;;6.93;0.73;;;6.50;99.90;;;;;;5045702;28;20133;-80
2022/01/22 03:03:08;;;;;;;4.35;0.80;;;6.50;99.90;;;;;;5043943;28;20401;-80
2022/01/22 03:05:34;;;;;;;6.28;1.17;;;6.60;99.90;;;;;;5027856;28;20519;-80
2022/01/22 03:08:05;;;;;;;11.38;0.68;;;6.60;99.90;;;;;;5044138;28;20073;-80
2022/01/22 03:10:31;;;;;;;8.15;0.85;;;6.60;99.90;;;;;;5044854;28;20052;-80
2022/01/22 03:28:21;;;;;;;4.78;0.50;;;6.60;99.90;;;;;;5044333;28;20068;-79
2022/01/22 03:30:47;;;;;;;3.83;0.70;;;6.60;99.90;;;;;;5045902;28;20037;-79
2022/01/22 03:33:14;;;;;;;2.75;0.40;;;6.70;99.90;;;;;;5044905;28;20041;-79
2022/01/22 03:35:45;;;;;;;6.28;0.50;;;7.60;99.90;;;;;;5043737;28;20127;-79
2022/01/22 03:38:10;;;;;;;8.25;0.73;;;7.70;99.90;;;;;;5045439;28;20131;-79
2022/01/22 03:40:36;;;;;;;13.13;0.88;;;7.50;99.90;;;;;;5045403;28;20120;-79
2022/01/22 03:43:02;;;;;;;4.32;0.52;;;6.60;99.90;;;;;;5045821;28;20049;-79
2022/01/22 03:45:28;;;;;;;2.67;0.40;;;6.70;99.90;;;;;;5045354;28;20071;-79
2022/01/22 03:47:54;;;;;;;5.78;0.57;;;6.60;99.90;;;;;;5047668;28;20460;-79
2022/01/22 03:50:21;;;;;;;2.33;0.28;;;6.60;99.90;;;;;;5047546;28;20041;-79
2022/01/22 03:52:47;;;;;;;6.68;0.82;;;7.80;99.90;;;;;;5048108;28;20056;-80
2022/01/22 03:55:27;;;;;;;5.65;0.43;;;6.60;99.90;;;;;;5047760;28;20041;-79
2022/01/22 03:57:53;;;;;;;9.80;0.82;;;6.60;99.90;;;;;;5047378;28;20091;-79
2022/01/22 04:00:19;;;;;;;9.70;0.70;;;6.60;99.90;;;;;;5049742;28;20499;-79
2022/01/22 04:03:24;;;;;;;5.18;0.60;;;6.60;99.90;;;;;;5048507;28;20052;-80
2022/01/22 04:05:53;;;;;;;5.57;1.00;;;6.90;99.90;;;;;;5047243;28;20045;-79
2022/01/22 04:08:19;;;;;;;6.55;0.55;;;6.70;99.90;;;;;;5048616;28;20040;-79
2022/01/22 04:10:45;;;;;;;5.65;1.00;;;6.60;99.90;;;;;;5048040;28;20064;-79
2022/01/22 04:13:14;;;;;;;3.75;0.77;;;7.40;99.90;;;;;;5047594;28;20057;-79
2022/01/22 04:15:41;;;;;;;7.57;0.77;;;6.60;99.90;;;;;;5046909;28;20124;-79
2022/01/22 04:26:52;;;;;;;4.20;1.15;;;7.60;99.90;;;;;;5046954;28;20065;-79
2022/01/22 04:29:18;;;;;;;1.90;0.30;;;6.60;99.90;;;;;;5046807;28;20049;-79
2022/01/22 04:31:44;;;;;;;9.13;0.60;;;7.40;99.90;;;;;;5047466;28;20131;-79
2022/01/22 04:34:09;;;;;;;1.65;0.57;;;7.90;99.90;;;;;;5048790;28;20543;-79
2022/01/22 04:36:36;;;;;;;5.30;0.40;;;6.60;99.90;;;;;;5046169;28;20088;-79
2022/01/22 04:39:02;;;;;;;3.22;0.30;;;6.60;99.90;;;;;;5047000;28;20052;-79
2022/01/22 04:41:28;;;;;;;7.28;0.50;;;6.60;99.90;;;;;;5047677;28;20134;-79
2022/01/22 04:43:59;;;;;;;4.78;0.40;;;6.60;99.90;;;;;;5048330;28;20069;-79
2022/01/22 04:46:47;;;;;;;4.47;0.40;;;6.50;99.90;;;;;;5047011;28;20529;-79
2022/01/22 04:57:05;;;;;;;8.07;0.40;;;7.10;99.90;;;;;;5048292;28;20474;-79
2022/01/22 04:59:31;;;;;;;4.72;0.40;;;6.60;99.90;;;;;;5029404;28;20059;-79
2022/01/22 05:01:57;;;;;;;4.95;0.77;;;6.60;99.90;;;;;;5047883;28;20064;-79
2022/01/22 05:04:23;;;;;;;10.70;0.60;;;7.80;99.90;;;;;;5046312;28;20048;-79
2022/01/22 05:06:48;;;;;;;6.82;0.80;;;6.60;99.90;;;;;;5046251;28;20052;-79
2022/01/22 05:09:14;;;;;;;10.25;0.80;;;6.60;99.90;;;;;;5047971;28;20045;-79
2022/01/22 05:11:40;;;;;;;6.65;0.68;;;6.60;99.90;;;;;;5045733;28;20414;-79
2022/01/22 05:14:06;;;;;;;18.15;0.88;;;7.30;99.90;;;;;;5029678;28;20045;-79
2022/01/22 05:16:32;;;;;;;4.18;0.73;;;6.90;99.90;;;;;;5047730;28;20082;-79
2022/01/22 05:19:02;;;;;;;10.38;1.20;;;6.60;99.90;;;;;;5029545;28;20478;-79
2022/01/22 05:21:31;;;;;;;13.50;1.00;;;6.60;99.90;;;;;;5013861;28;20498;-79
2022/01/22 05:24:00;;;;;;;4.15;0.77;;;6.60;99.90;;;;;;5045538;28;20060;-79
2022/01/22 05:37:09;;;;;;;2.38;0.38;;;6.60;99.90;;;;;;5045143;28;20091;-79
2022/01/22 05:39:36;;;;;;;2.78;0.40;;;6.60;99.90;;;;;;5045976;28;20560;-79
2022/01/22 05:42:04;;;;;;;10.43;0.57;;;6.80;99.90;;;;;;5045482;28;20448;-79
2022/01/22 05:44:33;;;;;;;7.93;0.50;;;6.60;99.90;;;;;;5045811;28;20052;-79
2022/01/22 05:47:04;;;;;;;6.43;0.40;;;7.50;99.90;;;;;;5045772;28;20081;-79
2022/01/22 05:49:33;;;;;;;9.63;0.80;;;6.60;99.90;;;;;;5045522;28;20050;-79
2022/01/22 05:52:01;;;;;;;8.60;0.60;;;6.60;99.90;;;;;;5047272;28;20052;-79
2022/01/22 05:59:55;;;;;;;8.10;0.70;;;6.50;99.90;;;;;;5045434;28;20094;-79
2022/01/22 06:02:21;;;;;;;3.15;0.63;;;6.70;99.90;;;;;;5046593;28;20080;-80
2022/01/22 06:04:47;;;;;;;10.32;0.55;;;6.50;99.90;;;;;;5046667;28;20073;-80
2022/01/22 06:07:13;;;;;;;11.23;0.60;;;6.50;99.90;;;;;;5028162;28;20119;-79
2022/01/22 06:09:52;;;;;;;3.75;0.50;;;6.50;99.90;;;;;;5045440;28;20045;-79
2022/01/22 06:12:29;;;;;;;6.70;0.95;;;6.50;99.90;;;;;;5046945;28;20045;-80
2022/01/22 06:14:55;;;;;;;6.70;0.70;;;6.50;99.90;;;;;;5045215;28;20044;-79
2022/01/22 06:17:20;;;;;;;19.45;1.23;;;6.50;99.90;;;;;;5045039;28;20512;-79
2022/01/22 06:19:46;;;;;;;4.85;0.50;;;6.50;99.90;;;;;;5044534;28;20481;-80
2022/01/22 06:22:12;;;;;;;7.72;0.60;;;6.60;99.90;;;;;;5046357;28;20053;-79
2022/01/22 06:24:37;;;;;;;6.80;0.82;;;6.60;99.90;;;;;;5045685;28;20406;-79
2022/01/22 06:27:03;;;;;;;3.85;0.38;;;6.60;99.90;;;;;;5045019;28;20057;-79
2022/01/22 06:29:29;;;;;;;10.00;0.93;;;6.50;99.90;;;;;;5046742;28;20226;-79
2022/01/22 06:31:54;;;;;;;8.75;1.20;;;6.60;99.90;;;;;;5044570;28;20045;-79
2022/01/22 06:34:20;;;;;;;12.35;0.80;;;6.60;99.90;;;;;;5046331;28;20048;-79
2022/01/22 06:36:46;;;;;;;8.70;0.60;;;6.60;99.90;;;;;;5044242;28;20049;-79
2022/01/22 06:39:18;;;;;;;8.40;0.80;;;6.60;99.90;;;;;;5046130;28;20045;-79
2022/01/22 06:41:44;;;;;;;5.38;0.77;;;7.00;99.90;;;;;;5045725;28;20049;-79
2022/01/22 06:44:18;;;;;;;8.95;1.27;;;6.50;99.90;;;;;;5046498;28;20045;-80
2022/01/22 06:46:46;;;;;;;2.58;0.73;;;6.60;99.90;;;;;;5045050;28;20345;-79
2022/01/22 06:49:12;;;;;;;4.45;0.85;;;6.50;99.90;;;;;;5045656;28;20115;-79
2022/01/22 06:51:38;;;;;;;8.35;1.30;;;6.50;99.90;;;;;;5028041;28;20076;-80
2022/01/22 06:54:06;;;;;;;5.07;0.93;;;6.50;99.90;;;;;;5045287;28;20060;-80
2022/01/22 06:56:32;;;;;;;6.38;1.10;;;6.50;99.90;;;;;;5046205;28;20059;-80
2022/01/22 06:58:59;;;;;;;7.00;1.20;;;6.50;99.90;;;;;;5044693;28;20144;-79
2022/01/22 07:01:28;;;;;;;9.27;1.00;;;6.50;99.90;;;;;;5045954;28;20072;-79
2022/01/22 07:03:54;;;;;;;4.90;0.82;;;6.50;99.90;;;;;;5044717;28;20045;-79
2022/01/22 07:06:21;;;;;;;6.28;0.50;;;6.40;99.90;;;;;;5011322;28;20396;-79
2022/01/22 07:08:47;;;;;;;8.32;0.80;;;6.40;99.90;;;;;;5044508;28;20045;-78
2022/01/22 07:11:13;;;;;;;7.22;0.63;;;6.40;99.90;;;;;;5043767;28;20041;-79
2022/01/22 07:13:38;;;;;;;3.72;0.63;;;6.50;99.90;;;;;;5044465;28;20045;-80
2022/01/22 07:16:05;;;;;;;6.80;0.60;;;6.40;99.90;;;;;;5027892;28;20044;-79
2022/01/22 07:18:31;;;;;;;3.60;1.15;;;6.40;99.90;;;;;;5044628;28;20049;-79
2022/01/22 07:20:57;;;;;;;8.55;0.65;;;6.40;99.90;;;;;;5027687;28;20106;-79
2022/01/22 07:26:06;;;;;;;5.43;0.75;;;6.40;99.90;;;;;;5048405;28;20131;-80
2022/01/22 07:28:31;;;;;;;6.25;0.85;;;6.40;99.90;;;;;;5047587;28;20498;-79
2022/01/22 07:30:59;;;;;;;5.65;0.60;;;6.40;99.90;;;;;;5047918;28;20049;-80
2022/01/22 07:33:26;;;;;;;4.63;1.02;;;6.90;99.90;;;;;;5048171;28;20049;-80
2022/01/22 07:35:53;;;;;;;6.60;1.10;;;6.40;99.90;;;;;;5047651;28;20067;-80
2022/01/22 07:38:19;;;;;;;5.65;1.13;;;6.40;99.90;;;;;;5047879;28;20053;-78
2022/01/22 07:40:45;;;;;;;8.90;1.13;;;7.40;99.90;;;;;;5047319;28;20491;-79
2022/01/22 07:43:10;;;;;;;5.65;0.90;;;6.40;99.90;;;;;;5014680;28;20099;-79
2022/01/22 07:45:37;;;;;;;4.28;0.80;;;6.30;99.90;;;;;;5048822;28;20044;-79
2022/01/22 07:48:03;;;;;;;4.35;0.75;;;6.30;99.90;;;;;;5049362;28;20124;-79
2022/01/22 07:50:28;;;;;;;3.55;0.73;;;6.30;99.90;;;;;;5048922;28;20116;-79
2022/01/22 07:52:54;;;;;;;5.70;0.60;;;6.30;99.90;;;;;;5049554;28;20044;-80
2022/01/22 07:55:21;;;;;;;5.03;0.57;;;6.30;99.90;;;;;;5047799;28;20049;-80
2022/01/22 07:57:47;;;;;;;7.43;0.65;;;6.30;99.90;;;;;;5048298;28;20055;-79
2022/01/22 08:00:17;;;;;;;13.60;0.68;;;6.30;99.90;;;;;;5048902;28;20097;-79
2022/01/22 08:02:43;;;;;;;4.82;0.22;;;6.30;99.90;;;;;;5048166;28;20090;-81
2022/01/22 08:05:09;;;;;;;2.00;0.30;;;6.30;99.90;;;;;;5049454;28;20037;-79
2022/01/22 08:07:54;;;;;;;1.38;0.60;;;6.30;99.90;;;;;;5047389;28;20048;-78
2022/01/22 08:10:19;;;;;;;2.80;0.30;;;6.30;99.90;;;;;;5048893;28;20100;-79
2022/01/22 08:12:49;;;;;;;5.93;0.50;;;6.30;99.90;;;;;;5048765;28;20174;-78
2022/01/22 08:15:16;;;;;;;2.22;0.30;;;6.30;99.90;;;;;;5047084;28;20044;-80
2022/01/22 08:17:43;;;;;;;7.25;0.50;;;7.00;99.90;;;;;;5047717;28;20465;-80
2022/01/22 08:20:12;;;;;;;3.35;0.90;;;5.10;99.90;;;;;;5047122;28;20047;-80
2022/01/22 08:22:38;;;;;;;3.97;0.50;;;6.30;99.90;;;;;;5048856;28;20088;-80
2022/01/22 08:25:04;;;;;;;5.30;1.02;;;6.30;99.90;;;;;;5047092;28;20076;-80
2022/01/22 08:29:56;;;;;;;4.60;0.70;;;6.40;99.90;;;;;;5047112;28;20052;-79
2022/01/22 08:32:34;;;;;;;3.28;0.47;;;6.40;99.90;;;;;;5046517;28;20055;-75
2022/01/22 08:37:45;;;;;;;6.93;0.95;;;7.90;99.90;;;;;;5046853;28;20053;-76
2022/01/22 08:40:11;;;;;;;4.75;0.60;;;6.40;99.90;;;;;;5046672;28;20090;-75
2022/01/22 08:42:37;;;;;;;4.70;0.50;;;6.40;99.90;;;;;;5013817;28;20056;-75
2022/01/22 08:45:04;;;;;;;2.78;0.50;;;6.40;99.90;;;;;;5045928;28;20052;-77
2022/01/22 08:47:30;;;;;;;8.07;0.80;;;6.40;99.90;;;;;;5048236;28;20493;-76
2022/01/22 08:49:56;;;;;;;16.35;0.77;;;6.40;99.90;;;;;;5047803;28;20044;-75
2022/01/22 08:52:26;;;;;;;6.97;0.57;;;6.40;99.90;;;;;;5046648;28;20044;-75
2022/01/22 08:54:52;;;;;;;3.42;0.50;;;6.40;99.90;;;;;;5046639;28;20055;-76
2022/01/22 08:57:18;;;;;;;3.90;0.45;;;6.40;99.90;;;;;;5047821;28;20131;-75
2022/01/22 08:59:44;;;;;;;5.82;0.30;;;6.50;99.90;;;;;;5046544;28;20456;-74
2022/01/22 09:02:11;;;;;;;3.63;0.38;;;6.50;99.90;;;;;;5047011;28;20652;-74
2022/01/22 09:04:37;;;;;;;2.88;0.32;;;6.50;99.90;;;;;;5047797;28;20119;-74
2022/01/22 09:07:03;;;;;;;4.50;0.35;;;6.60;99.90;;;;;;5047358;28;20119;-74
2022/01/22 09:09:29;;;;;;;3.05;0.30;;;6.60;99.90;;;;;;5047729;28;20581;-75
2022/01/22 09:11:55;;;;;;;3.88;0.35;;;6.60;99.90;;;;;;5047833;28;20123;-74
2022/01/22 09:14:21;;;;;;;3.70;0.60;;;6.60;99.90;;;;;;5047641;28;20037;-74
2022/01/22 09:16:48;;;;;;;7.22;0.40;;;8.00;99.90;;;;;;5047818;28;20129;-75
2022/01/22 09:19:14;;;;;;;6.25;0.50;;;6.70;99.90;;;;;;5045621;28;20045;-75
2022/01/22 09:21:42;;;;;;;7.53;0.60;;;6.70;99.90;;;;;;5047159;28;20051;-74
2022/01/22 09:24:08;;;;;;;8.40;0.60;;;6.70;99.90;;;;;;5046883;28;20076;-74
2022/01/22 09:26:34;;;;;;;6.03;0.40;;;6.70;99.90;;;;;;5029513;28;20045;-75
2022/01/22 09:29:00;;;;;;;3.78;0.28;;;6.70;99.90;;;;;;5046157;28;20037;-76
2022/01/22 09:31:28;;;;;;;5.00;0.40;;;6.80;99.90;;;;;;5046253;28;20053;-76
2022/01/22 09:33:59;;;;;;;3.10;0.50;;;6.80;99.90;;;;;;5046091;28;20478;-75
2022/01/22 09:36:27;;;;;;;6.70;0.55;;;6.80;99.90;;;;;;5027956;28;20049;-76
2022/01/22 09:38:53;;;;;;;7.65;0.55;;;7.00;99.90;;;;;;5029344;28;20087;-74
2022/01/22 09:41:20;;;;;;;4.82;0.20;;;6.80;99.90;;;;;;5046770;28;20045;-76
2022/01/22 09:43:46;;;;;;;9.90;0.70;;;6.80;99.90;;;;;;5046081;28;20112;-75
2022/01/22 09:46:12;;;;;;;5.72;0.73;;;6.80;99.90;;;;;;5045509;28;20049;-76
2022/01/22 09:48:45;;;;;;;4.47;0.57;;;7.50;99.90;;;;;;5045461;28;20580;-77
2022/01/22 09:51:12;;;;;;;2.58;0.40;;;6.80;99.90;;;;;;5047283;28;20037;-77
2022/01/22 09:53:40;;;;;;;4.00;0.47;;;6.90;99.90;;;;;;5027913;28;20045;-77
2022/01/22 09:56:06;;;;;;;7.20;1.02;;;7.20;99.90;;;;;;5046995;28;20147;-77
2022/01/22 09:58:31;;;;;;;3.53;0.60;;;7.00;99.90;;;;;;5045375;28;20127;-77
2022/01/22 10:01:19;;;;;;;7.22;0.57;;;6.90;99.90;;;;;;5045938;28;20490;-76
2022/01/22 10:03:45;;;;;;;1.20;0.32;;;6.90;99.90;;;;;;5045381;28;20053;-76
2022/01/22 10:06:19;;;;;;;6.32;0.93;;;6.90;99.90;;;;;;4995317;28;20052;-76
2022/01/22 10:08:45;;;;;;;1.80;0.40;;;6.90;99.90;;;;;;5046641;28;20075;-76
2022/01/22 10:11:27;;;;;;;2.85;0.55;;;7.00;99.90;;;;;;5046632;28;20041;-75
2022/01/22 10:13:59;;;;;;;5.38;0.55;;;7.00;99.90;;;;;;5046678;28;20041;-76
2022/01/22 10:16:26;;;;;;;4.47;0.70;;;7.00;99.90;;;;;;5046604;28;20044;-76
2022/01/22 10:19:22;;;;;;;6.97;0.70;;;7.00;99.90;;;;;;5044709;28;20076;-76
2022/01/22 10:21:57;;;;;;;2.42;0.50;;;7.10;99.90;;;;;;5046194;28;20520;-75
2022/01/22 10:24:35;;;;;;;4.28;0.40;;;7.20;99.90;;;;;;5046493;28;20448;-75
2022/01/22 10:27:33;;;;;;;1.35;0.40;;;7.10;99.90;;;;;;5044752;28;20055;-76
2022/01/22 10:30:05;;;;;;;3.90;0.50;;;7.10;99.90;;;;;;5041548;28;20107;-76
2022/01/22 10:35:08;;;;;;;1.30;0.32;;;7.10;99.90;;;;;;5046145;28;19920;-75
2022/01/22 10:37:34;;;;;;;1.92;0.50;;;7.10;99.90;;;;;;5044481;28;20136;-76
2022/01/22 10:40:40;;;;;;;9.50;1.08;;;7.20;99.90;;;;;;5044626;28;20052;-77
2022/01/22 10:43:13;;;;;;;4.22;0.73;;;7.20;99.90;;;;;;5006910;28;20155;-75
2022/01/22 10:45:41;;;;;;;;;;;7.80;99.90;;;;;;5007268;28;20099;-76
2022/01/22 10:48:16;;;;;;;2.83;0.40;;;8.00;99.90;;;;;;5025967;28;20007;-76
2022/01/22 10:50:42;;;;;;;7.03;0.80;;;7.10;99.90;;;;;;5044303;28;20060;-76
2022/01/22 10:53:08;;;;;;;3.03;0.52;;;7.20;99.90;;;;;;5044608;28;20138;-76
2022/01/22 10:56:01;;;;;;;4.88;0.73;;;7.20;99.90;;;;;;5044297;28;20084;-77
2022/01/22 10:58:27;;;;;;;3.60;0.68;;;7.10;99.90;;;;;;5043715;28;20056;-77
2022/01/22 11:01:04;;;;;;;2.72;0.38;;;7.20;99.90;;;;;;5044966;28;20045;-77
2022/01/22 11:03:30;;;;;;;10.65;1.05;;;7.20;99.90;;;;;;5027680;28;20080;-77
2022/01/22 11:05:57;;;;;;;5.05;1.00;;;7.20;99.90;;;;;;5044176;28;20489;-76
2022/01/22 11:08:23;;;;;;;4.75;1.05;;;7.20;99.90;;;;;;5044612;28;20033;-76
2022/01/22 11:10:50;;;;;;;3.72;0.68;;;7.30;99.90;;;;;;5027641;28;20040;-75
2022/01/22 11:13:21;;;;;;;3.50;0.82;;;7.20;99.90;;;;;;5045945;28;20154;-76
2022/01/22 11:15:50;;;;;;;3.28;0.80;;;7.20;99.90;;;;;;5045454;28;20044;-76
2022/01/22 11:18:18;;;;;;;5.85;0.50;;;7.70;99.90;;;;;;5045564;28;20060;-76
2022/01/22 11:20:44;;;;;;;6.28;0.70;;;7.90;99.90;;;;;;5045640;28;20041;-76
2022/01/22 11:23:10;;;;;;;6.57;0.80;;;7.20;99.90;;;;;;5045257;28;20132;-76
2022/01/22 11:25:35;;;;;;;7.50;1.42;;;7.20;99.90;;;;;;5045498;28;20076;-76
2022/01/22 11:28:02;;;;;;;6.25;0.93;;;7.20;99.90;;;;;;5045550;28;20049;-75
2022/01/22 11:30:29;;;;;;;3.33;1.23;;;7.20;99.90;;;;;;5045941;28;20045;-76
2022/01/22 11:33:02;;;;;;;7.35;0.95;;;8.00;99.90;;;;;;5045762;28;20041;-75
2022/01/22 11:35:55;;;;;;;5.93;1.83;;;7.20;99.90;;;;;;5028330;28;20040;-76
2022/01/22 11:38:33;;;;;;;4.97;1.05;;;7.20;99.90;;;;;;5043950;28;20132;-75
2022/01/22 11:41:06;;;;;;;12.55;1.90;;;7.30;99.90;;;;;;5045572;28;20397;-74
2022/01/22 11:46:36;;;;;;;9.27;1.10;;;7.10;99.90;;;;;;5043900;28;20136;-75
2022/01/22 11:49:21;;;;;;;3.45;0.98;;;7.10;99.90;;;;;;5027605;28;20049;-74
2022/01/22 11:51:50;;;;;;;8.27;1.10;;;7.10;99.90;;;;;;5013114;28;20433;-74
2022/01/22 11:54:18;;;;;;;6.03;1.15;;;7.10;99.90;;;;;;5027942;28;20401;-74
2022/01/22 11:56:48;;;;;;;3.85;1.10;;;7.10;99.90;;;;;;5044397;28;20068;-74
2022/01/22 11:59:25;;;;;;;8.25;1.40;;;7.10;99.90;;;;;;5027226;28;20037;-75
2022/01/22 12:02:03;;;;;;;9.10;1.42;;;7.10;99.90;;;;;;5026695;28;20088;-75
2022/01/22 12:04:38;;;;;;;10.82;1.50;;;7.20;99.90;;;;;;5043767;28;20498;-75
2022/01/22 12:07:04;;;;;;;7.28;1.33;;;7.10;99.90;;;;;;5027199;28;20119;-75
2022/01/22 12:10:15;;;;;;;9.23;1.17;;;7.10;99.90;;;;;;5046694;28;20569;-75
2022/01/22 12:15:20;;;;;;;9.07;1.50;;;7.10;99.90;;;;;;5046903;28;20068;-75
2022/01/22 12:18:05;;;;;;;10.63;2.10;;;6.30;99.90;;;;;;5047835;28;20074;-74
2022/01/22 12:23:02;;;;;;;5.00;1.48;;;7.10;99.90;;;;;;5046834;28;20060;-75
2022/01/22 12:25:28;;;;;;;6.57;1.33;;;7.10;99.90;;;;;;5030501;28;20518;-75
2022/01/22 12:27:55;;;;;;;17.42;2.08;;;7.30;99.90;;;;;;5046616;28;20049;-75
2022/01/22 12:30:39;;;;;;;11.77;1.88;;;7.10;99.90;;;;;;5047307;28;20053;-75
2022/01/22 12:33:12;;;;;;;6.72;1.80;;;7.10;99.90;;;;;;5047225;28;20040;-75
2022/01/22 12:35:41;;;;;;;13.10;2.17;;;7.10;99.90;;;;;;5030630;28;20033;-76
2022/01/22 12:38:28;;;;;;;8.88;1.83;;;7.20;99.90;;;;;;5046725;28;20049;-76
2022/01/22 12:40:59;;;;;;;11.10;2.50;;;7.20;99.90;;;;;;5046410;28;20060;-75
2022/01/22 12:43:31;;;;;;;8.90;2.22;;;7.10;99.90;;;;;;5046721;28;20088;-75
2022/01/22 12:46:03;;;;;;;3.83;1.40;;;7.20;99.90;;;;;;5031279;28;20056;-75
2022/01/22 12:48:34;;;;;;;22.38;4.50;;;7.20;99.90;;;;;;5046428;28;20052;-76
2022/01/22 12:51:06;;;;;;;23.70;3.20;;;7.20;99.90;;;;;;5046852;28;20052;-75
2022/01/22 12:53:34;;;;;;;14.60;2.65;;;7.20;99.90;;;;;;5045749;28;20080;-75
2022/01/22 12:56:24;;;;;;;12.10;2.85;;;7.20;99.90;;;;;;5029851;28;20045;-75
2022/01/22 12:58:47;;;;;;;16.48;2.75;;;7.20;99.90;;;;;;5046493;28;20045;-75
2022/01/22 13:01:14;;;;;;;15.20;2.88;;;7.20;99.90;;;;;;5029845;28;20045;-75
2022/01/22 13:03:43;;;;;;;13.63;3.28;;;7.30;99.90;;;;;;5047838;28;20048;-76
2022/01/22 13:06:09;;;;;;;8.18;2.08;;;7.30;99.90;;;;;;5045758;28;20056;-75
2022/01/22 13:08:36;;;;;;;9.95;2.65;;;7.30;99.90;;;;;;5046271;28;20555;-76
2022/01/22 13:11:04;;;;;;;9.20;2.65;;;7.30;99.90;;;;;;5046169;28;20051;-75
2022/01/22 13:13:31;;;;;;;5.85;1.60;;;7.30;99.90;;;;;;5047474;28;20076;-75
2022/01/22 13:16:17;;;;;;;9.68;1.60;;;7.20;99.90;;;;;;5047336;28;20131;-75
2022/01/22 13:18:49;;;;;;;12.52;1.52;;;7.20;99.90;;;;;;5047332;28;20057;-75
2022/01/22 13:21:16;;;;;;;9.38;1.85;;;7.20;99.90;;;;;;5046809;28;20056;-76
2022/01/22 13:23:43;;;;;;;7.97;1.10;;;7.30;99.90;;;;;;5047336;28;20112;-74
2022/01/22 13:26:10;;;;;;;8.00;1.17;;;7.20;99.90;;;;;;5046052;28;20037;-75
2022/01/22 13:28:37;;;;;;;8.98;1.33;;;7.20;99.90;;;;;;5045920;28;20077;-77
2022/01/22 13:31:18;;;;;;;2.13;0.95;;;7.20;99.90;;;;;;5045901;28;20509;-77
2022/01/22 13:33:59;;;;;;;6.30;1.35;;;7.20;99.90;;;;;;5046133;28;20049;-76
2022/01/22 13:36:55;;;;;;;9.85;1.55;;;7.20;99.90;;;;;;5046828;28;20052;-75
2022/01/22 13:40:00;;;;;;;13.00;1.73;;;7.10;99.90;;;;;;5047383;28;20048;-75
2022/01/22 13:47:47;;;;;;;15.38;2.20;;;7.10;99.90;;;;;;5047505;28;20097;-76
2022/01/22 13:50:14;;;;;;;10.98;1.20;;;7.10;99.90;;;;;;5046021;28;20076;-76
2022/01/22 13:52:40;;;;;;;3.70;0.75;;;7.00;99.90;;;;;;5046566;28;20049;-76
2022/01/22 13:55:06;;;;;;;9.00;1.77;;;7.00;99.90;;;;;;5045255;28;20513;-77
2022/01/22 13:57:37;;;;;;;8.80;1.13;;;7.00;99.90;;;;;;5044772;28;20055;-76
2022/01/22 14:00:15;;;;;;;4.38;1.10;;;7.00;99.90;;;;;;5046451;28;20567;-76
2022/01/22 14:03:06;;;;;;;10.00;0.93;;;7.00;99.90;;;;;;5045155;28;20055;-77
2022/01/22 14:05:32;;;;;;;14.90;1.20;;;7.00;99.90;;;;;;5045238;28;20053;-76
2022/01/22 14:08:07;;;;;;;5.22;0.98;;;6.90;99.90;;;;;;5045443;28;20546;-76
2022/01/22 14:10:35;;;;;;;14.13;1.27;;;6.90;99.90;;;;;;5044955;28;20533;-76
2022/01/22 14:13:10;;;;;;;9.93;1.13;;;6.90;99.90;;;;;;5046771;28;20052;-75
2022/01/22 14:15:42;;;;;;;9.95;1.27;;;7.10;99.90;;;;;;5046225;28;20084;-75
2022/01/22 14:18:19;;;;;;;6.10;0.60;;;6.90;99.90;;;;;;5046233;28;20045;-75
2022/01/22 14:20:55;;;;;;;7.47;0.90;;;6.80;99.90;;;;;;5044825;28;20041;-74
2022/01/22 14:23:23;;;;;;;6.32;0.60;;;6.80;99.90;;;;;;5046027;28;20402;-75
2022/01/22 14:26:05;;;;;;;9.48;1.05;;;6.80;99.90;;;;;;5045708;28;20438;-75
2022/01/22 14:28:55;;;;;;;11.23;1.02;;;6.80;99.90;;;;;;5044841;28;20486;-77
2022/01/22 14:31:50;;;;;;;10.73;1.20;;;6.80;99.90;;;;;;5045887;28;20044;-75
2022/01/22 14:34:36;;;;;;;7.68;0.93;;;6.70;99.90;;;;;;5044841;28;20048;-74
2022/01/22 14:37:05;;;;;;;5.47;0.80;;;6.70;99.90;;;;;;5027647;28;20110;-76
2022/01/22 14:45:28;;;;;;;6.30;0.80;;;6.70;99.90;;;;;;5044526;28;20111;-76
2022/01/22 14:47:57;;;;;;;2.92;0.73;;;6.60;99.90;;;;;;5028194;28;20353;-75
2022/01/22 14:50:24;;;;;;;8.05;2.00;;;6.60;99.90;;;;;;5044813;28;20091;-76
2022/01/22 14:52:55;;;;;;;5.03;1.10;;;6.70;99.90;;;;;;5044178;28;20053;-76
2022/01/22 14:55:22;;;;;;;12.48;1.30;;;6.70;99.90;;;;;;5044475;28;20084;-76
2022/01/22 14:57:48;;;;;;;5.25;0.73;;;6.70;99.90;;;;;;5028248;28;20048;-76
2022/01/22 15:00:16;;;;;;;3.22;0.70;;;6.70;99.90;;;;;;5044851;28;20041;-76